Time;durP1;ratioP1;P1;durP2;ratioP2;P2;SDS_P1;SDS_P2;PMS_P1;PMS_P2;Temp;Humidity;BMP_temperature;BMP_pressure;BME280_temperature;BME280_humidity;BME280_pressure;Samples;Min_cycle;Max_cycle;Signal;HPM_P1;HPM_P2
2021/07/03 00:01:57;;;;;;;;;;;;;;;;;;5115340;27;20006;-75
2021/07/03 00:04:23;;;;;;;;;;;;;;;;;;5115271;27;20015;-75
2021/07/03 00:06:49;;;;;;;;;;;;;;;;;;5114061;27;20339;-75
2021/07/03 00:09:15;;;;;;;;;;;;;;;;;;5112392;28;19938;-75
2021/07/03 00:11:41;;;;;;;;;;;;;;;;;;5117716;27;19908;-76
2021/07/03 00:14:07;;;;;;;;;;;;;;;;;;5096537;28;19935;-77
2021/07/03 00:16:33;;;;;;;;;;;;;;;;;;5115045;27;19912;-76
2021/07/03 00:18:59;;;;;;;;;;;;;;;;;;5096824;27;19911;-76
2021/07/03 00:21:25;;;;;;;;;;;;;;;;;;5110310;28;19911;-75
2021/07/03 00:23:50;;;;;;;;;;;;;;;;;;5118368;27;19988;-75
2021/07/03 00:26:16;;;;;;;;;;;;;;;;;;5115130;27;19916;-76
2021/07/03 00:28:42;;;;;;;;;;;;;;;;;;5096461;28;20349;-76
2021/07/03 00:31:08;;;;;;;;;;;;;;;;;;5114676;27;19912;-75
2021/07/03 00:33:34;;;;;;;;;;;;;;;;;;5093326;27;20359;-75
2021/07/03 00:36:00;;;;;;;;;;;;;;;;;;5115748;27;20363;-76
2021/07/03 00:38:26;;;;;;;;;;;;;;;;;;5115331;27;19912;-74
2021/07/03 00:40:52;;;;;;;;;;;;;;;;;;5096019;28;20503;-77
2021/07/03 00:43:18;;;;;;;;;;;;;;;;;;5117597;27;20006;-75
2021/07/03 00:45:43;;;;;;;;;;;;;;;;;;5112767;27;20429;-76
2021/07/03 00:48:09;;;;;;;;;;;;;;;;;;5112732;27;19908;-75
2021/07/03 00:50:35;;;;;;;;;;;;;;;;;;5116263;27;20363;-75
2021/07/03 00:53:01;;;;;;;;;;;;;;;;;;5120140;27;19912;-76
2021/07/03 00:55:27;;;;;;;;;;;;;;;;;;5121644;27;20320;-77
2021/07/03 00:57:53;;;;;;;;;;;;;;;;;;5113919;27;19919;-77
2021/07/03 01:00:19;;;;;;;;;;;;;;;;;;5092855;28;20045;-76
2021/07/03 01:02:45;;;;;;;;;;;;;;;;;;5128249;27;19907;-76
2021/07/03 01:05:11;;;;;;;;;;;;;;;;;;5115155;27;19927;-76
2021/07/03 01:07:37;;;;;;;;;;;;;;;;;;5112925;27;19918;-75
2021/07/03 01:10:02;;;;;;;;;;;;;;;;;;5113771;27;20006;-75
2021/07/03 01:12:28;;;;;;;;;;;;;;;;;;5110145;28;20431;-75
2021/07/03 01:14:54;;;;;;;;;;;;;;;;;;5116619;27;19998;-75
2021/07/03 01:17:20;;;;;;;;;;;;;;;;;;5114429;27;19908;-75
2021/07/03 01:19:46;;;;;;;;;;;;;;;;;;5113582;27;20413;-75
2021/07/03 01:22:12;;;;;;;;;;;;;;;;;;5113951;27;19923;-75
2021/07/03 01:24:38;;;;;;;;;;;;;;;;;;5111295;27;19920;-75
2021/07/03 01:27:04;;;;;;;;;;;;;;;;;;5114090;27;19961;-75
2021/07/03 01:29:30;;;;;;;;;;;;;;;;;;5114816;27;20314;-76
2021/07/03 01:31:56;;;;;;;;;;;;;;;;;;5112727;27;20109;-76
2021/07/03 01:34:21;;;;;;;;;;;;;;;;;;5114154;27;19922;-76
2021/07/03 01:36:47;;;;;;;;;;;;;;;;;;5112867;27;19986;-76
2021/07/03 01:39:13;;;;;;;;;;;;;;;;;;5110406;28;19919;-75
2021/07/03 01:41:39;;;;;;;;;;;;;;;;;;5114524;27;20283;-75
2021/07/03 01:44:05;;;;;;;;;;;;;;;;;;5113532;27;20015;-75
2021/07/03 01:46:31;;;;;;;;;;;;;;;;;;5113294;27;19989;-76
2021/07/03 01:48:57;;;;;;;;;;;;;;;;;;5112712;27;19940;-76
2021/07/03 01:51:22;;;;;;;;;;;;;;;;;;5109515;28;19912;-76
2021/07/03 01:53:48;;;;;;;;;;;;;;;;;;5129289;27;19914;-76
2021/07/03 01:56:14;;;;;;;;;;;;;;;;;;5113666;27;20339;-76
2021/07/03 01:58:40;;;;;;;;;;;;;;;;;;5112611;27;19919;-76
2021/07/03 02:01:06;;;;;;;;;;;;;;;;;;5113177;28;19915;-76
2021/07/03 02:03:32;;;;;;;;;;;;;;;;;;5109802;28;19912;-76
2021/07/03 02:05:58;;;;;;;;;;;;;;;;;;5114811;28;19911;-76
2021/07/03 02:08:24;;;;;;;;;;;;;;;;;;5112515;28;19919;-76
2021/07/03 02:10:50;;;;;;;;;;;;;;;;;;5113276;28;19960;-76
2021/07/03 02:13:16;;;;;;;;;;;;;;;;;;5113475;28;19915;-76
2021/07/03 02:15:41;;;;;;;;;;;;;;;;;;5111768;28;20394;-76
2021/07/03 02:18:07;;;;;;;;;;;;;;;;;;5113253;28;19961;-75
2021/07/03 02:20:33;;;;;;;;;;;;;;;;;;5114667;28;20393;-75
2021/07/03 02:22:59;;;;;;;;;;;;;;;;;;5112744;28;19919;-76
2021/07/03 02:25:25;;;;;;;;;;;;;;;;;;5113445;28;19926;-76
2021/07/03 02:27:51;;;;;;;;;;;;;;;;;;5112592;28;19919;-76
2021/07/03 02:30:17;;;;;;;;;;;;;;;;;;5114465;28;19920;-76
2021/07/03 02:32:43;;;;;;;;;;;;;;;;;;5120026;27;19928;-77
2021/07/03 02:35:09;;;;;;;;;;;;;;;;;;5117030;27;19939;-77
2021/07/03 02:37:34;;;;;;;;;;;;;;;;;;5116079;27;19912;-77
2021/07/03 02:40:00;;;;;;;;;;;;;;;;;;5117129;27;20275;-74
2021/07/03 02:42:26;;;;;;;;;;;;;;;;;;5113381;27;19920;-58
2021/07/03 02:44:52;;;;;;;;;;;;;;;;;;5120550;27;20371;-61
2021/07/03 02:47:18;;;;;;;;;;;;;;;;;;5117275;27;19919;-58
2021/07/03 02:49:44;;;;;;;;;;;;;;;;;;5097848;28;20387;-61
2021/07/03 02:52:10;;;;;;;;;;;;;;;;;;5115554;27;19997;-59
2021/07/03 02:54:36;;;;;;;;;;;;;;;;;;5128852;27;20385;-60
2021/07/03 02:57:01;;;;;;;;;;;;;;;;;;5116983;27;19953;-60
2021/07/03 02:59:27;;;;;;;;;;;;;;;;;;5118059;27;19968;-60
2021/07/03 03:01:54;;;;;;;;;;;;;;;;;;5116892;27;19977;-60
2021/07/03 03:04:19;;;;;;;;;;;;;;;;;;5116826;27;19928;-61
2021/07/03 03:06:45;;;;;;;;;;;;;;;;;;5114435;27;19911;-60
2021/07/03 03:09:11;;;;;;;;;;;;;;;;;;5114035;27;19947;-61
2021/07/03 03:11:37;;;;;;;;;;;;;;;;;;5118518;27;19911;-61
2021/07/03 03:14:03;;;;;;;;;;;;;;;;;;5117108;27;19937;-60
2021/07/03 03:16:29;;;;;;;;;;;;;;;;;;5116415;27;19919;-61
2021/07/03 03:18:55;;;;;;;;;;;;;;;;;;5115750;27;19919;-60
2021/07/03 03:21:21;;;;;;;;;;;;;;;;;;5112217;28;20402;-60
2021/07/03 03:23:47;;;;;;;;;;;;;;;;;;5119679;27;19923;-60
2021/07/03 03:26:13;;;;;;;;;;;;;;;;;;5116102;27;20294;-60
2021/07/03 03:28:38;;;;;;;;;;;;;;;;;;5116226;27;20041;-60
2021/07/03 03:31:04;;;;;;;;;;;;;;;;;;5098030;27;20286;-60
2021/07/03 03:33:30;;;;;;;;;;;;;;;;;;5112677;27;19912;-60
2021/07/03 03:35:56;;;;;;;;;;;;;;;;;;5118076;27;20313;-60
2021/07/03 03:38:22;;;;;;;;;;;;;;;;;;5115246;27;19942;-60
2021/07/03 03:40:48;;;;;;;;;;;;;;;;;;5115744;27;20002;-60
2021/07/03 03:43:14;;;;;;;;;;;;;;;;;;5116308;27;19911;-60
2021/07/03 03:45:40;;;;;;;;;;;;;;;;;;5113791;27;19920;-60
2021/07/03 03:48:06;;;;;;;;;;;;;;;;;;5115733;27;19908;-60
2021/07/03 03:50:31;;;;;;;;;;;;;;;;;;5098014;28;20425;-60
2021/07/03 03:52:57;;;;;;;;;;;;;;;;;;5121420;27;19918;-60
2021/07/03 03:55:23;;;;;;;;;;;;;;;;;;5123701;27;20389;-60
2021/07/03 03:57:49;;;;;;;;;;;;;;;;;;5114440;27;19911;-58
2021/07/03 04:00:17;;;;;;;;;;;;;;;;;;5113744;27;20340;-60
2021/07/03 04:02:43;;;;;;;;;;;;;;;;;;5100504;28;20301;-60
2021/07/03 04:05:09;;;;;;;;;;;;;;;;;;5115885;27;19919;-60
2021/07/03 04:07:35;;;;;;;;;;;;;;;;;;5114393;27;19938;-60
2021/07/03 04:10:01;;;;;;;;;;;;;;;;;;5115425;27;19920;-58
2021/07/03 04:12:27;;;;;;;;;;;;;;;;;;5110633;27;20278;-60
2021/07/03 04:14:53;;;;;;;;;;;;;;;;;;5118778;27;20007;-60
2021/07/03 04:17:19;;;;;;;;;;;;;;;;;;5117275;27;20355;-60
2021/07/03 04:19:44;;;;;;;;;;;;;;;;;;5114772;27;19923;-60
2021/07/03 04:22:10;;;;;;;;;;;;;;;;;;5115266;27;20450;-60
2021/07/03 04:24:36;;;;;;;;;;;;;;;;;;5112087;27;19928;-60
2021/07/03 04:27:02;;;;;;;;;;;;;;;;;;5115251;27;20354;-58
2021/07/03 04:29:28;;;;;;;;;;;;;;;;;;5116285;27;19953;-60
2021/07/03 04:31:54;;;;;;;;;;;;;;;;;;5115409;27;19923;-62
2021/07/03 04:34:20;;;;;;;;;;;;;;;;;;5115030;27;19916;-61
2021/07/03 04:36:46;;;;;;;;;;;;;;;;;;5095410;27;19964;-62
2021/07/03 04:39:12;;;;;;;;;;;;;;;;;;5111718;28;19948;-62
2021/07/03 04:41:37;;;;;;;;;;;;;;;;;;5116689;27;19994;-61
2021/07/03 04:44:05;;;;;;;;;;;;;;;;;;5115353;27;20375;-61
2021/07/03 04:46:31;;;;;;;;;;;;;;;;;;5114705;27;20102;-61
2021/07/03 04:48:57;;;;;;;;;;;;;;;;;;5114312;27;20006;-61
2021/07/03 04:51:23;;;;;;;;;;;;;;;;;;5110028;28;19912;-61
2021/07/03 04:53:49;;;;;;;;;;;;;;;;;;5130767;27;19907;-61
2021/07/03 04:56:17;;;;;;;;;;;;;;;;;;5096887;28;20390;-61
2021/07/03 04:58:43;;;;;;;;;;;;;;;;;;5114121;27;20488;-59
2021/07/03 05:01:08;;;;;;;;;;;;;;;;;;5114425;27;20003;-61
2021/07/03 05:03:34;;;;;;;;;;;;;;;;;;5111038;27;19918;-61
2021/07/03 05:06:00;;;;;;;;;;;;;;;;;;5115764;27;19945;-61
2021/07/03 05:08:26;;;;;;;;;;;;;;;;;;5115028;27;19961;-61
2021/07/03 05:10:52;;;;;;;;;;;;;;;;;;5096386;28;19982;-61
2021/07/03 05:13:18;;;;;;;;;;;;;;;;;;5114317;27;20002;-61
2021/07/03 05:15:44;;;;;;;;;;;;;;;;;;5112014;27;20275;-61
2021/07/03 05:18:10;;;;;;;;;;;;;;;;;;5113422;27;19908;-61
2021/07/03 05:20:35;;;;;;;;;;;;;;;;;;5115498;27;20351;-61
2021/07/03 05:23:01;;;;;;;;;;;;;;;;;;5114260;27;19912;-61
2021/07/03 05:25:27;;;;;;;;;;;;;;;;;;5113874;27;20379;-61
2021/07/03 05:27:53;;;;;;;;;;;;;;;;;;5113302;27;19911;-61
2021/07/03 05:30:19;;;;;;;;;;;;;;;;;;5110848;28;19920;-61
2021/07/03 05:32:45;;;;;;;;;;;;;;;;;;5115098;27;20286;-61
2021/07/03 05:35:11;;;;;;;;;;;;;;;;;;5107745;28;19918;-62
2021/07/03 05:37:37;;;;;;;;;;;;;;;;;;5109712;28;19935;-59
2021/07/03 05:40:02;;;;;;;;;;;;;;;;;;5108606;28;20002;-60
2021/07/03 05:42:28;;;;;;;;;;;;;;;;;;5105947;28;19916;-59
2021/07/03 05:44:54;;;;;;;;;;;;;;;;;;5095822;28;20302;-59
2021/07/03 05:47:20;;;;;;;;;;;;;;;;;;5098475;28;19912;-59
2021/07/03 05:49:46;;;;;;;;;;;;;;;;;;5102694;28;19915;-61
2021/07/03 05:52:12;;;;;;;;;;;;;;;;;;5099958;28;19963;-59
2021/07/03 05:54:38;;;;;;;;;;;;;;;;;;5109096;28;20548;-59
2021/07/03 05:57:04;;;;;;;;;;;;;;;;;;5095176;28;19965;-59
2021/07/03 05:59:30;;;;;;;;;;;;;;;;;;5096609;28;20390;-60
2021/07/03 06:01:55;;;;;;;;;;;;;;;;;;5096111;28;20007;-60
2021/07/03 06:04:21;;;;;;;;;;;;;;;;;;5107378;28;20007;-61
2021/07/03 06:06:47;;;;;;;;;;;;;;;;;;5106070;28;19912;-61
2021/07/03 06:09:13;;;;;;;;;;;;;;;;;;5103046;28;19964;-59
2021/07/03 06:11:39;;;;;;;;;;;;;;;;;;5095361;28;20023;-59
2021/07/03 06:14:05;;;;;;;;;;;;;;;;;;5103472;28;20348;-59
2021/07/03 06:16:31;;;;;;;;;;;;;;;;;;5102765;28;19970;-60
2021/07/03 06:18:57;;;;;;;;;;;;;;;;;;5106534;28;19919;-60
2021/07/03 06:21:23;;;;;;;;;;;;;;;;;;5082654;28;19919;-60
2021/07/03 06:23:49;;;;;;;;;;;;;;;;;;5114194;28;19939;-60
2021/07/03 06:26:14;;;;;;;;;;;;;;;;;;5111572;28;20333;-60
2021/07/03 06:28:40;;;;;;;;;;;;;;;;;;5111794;28;20347;-59
2021/07/03 06:31:06;;;;;;;;;;;;;;;;;;5109897;28;19911;-59
2021/07/03 06:33:32;;;;;;;;;;;;;;;;;;5111207;28;20402;-59
2021/07/03 06:35:58;;;;;;;;;;;;;;;;;;5115297;28;19974;-61
2021/07/03 06:38:24;;;;;;;;;;;;;;;;;;5111899;28;20509;-61
2021/07/03 06:40:50;;;;;;;;;;;;;;;;;;5114527;28;19912;-60
2021/07/03 06:43:16;;;;;;;;;;;;;;;;;;5117529;28;20359;-58
2021/07/03 06:45:41;;;;;;;;;;;;;;;;;;5107320;28;20376;-59
2021/07/03 06:48:07;;;;;;;;;;;;;;;;;;5111407;28;19937;-63
2021/07/03 06:50:33;;;;;;;;;;;;;;;;;;5112091;28;20018;-59
2021/07/03 06:52:59;;;;;;;;;;;;;;;;;;5117194;28;20418;-59
2021/07/03 06:55:25;;;;;;;;;;;;;;;;;;5112605;28;19938;-59
2021/07/03 06:57:51;;;;;;;;;;;;;;;;;;5106774;28;19911;-59
2021/07/03 07:00:17;;;;;;;;;;;;;;;;;;5090261;28;19970;-61
2021/07/03 07:02:43;;;;;;;;;;;;;;;;;;5113562;28;19980;-60
2021/07/03 07:05:09;;;;;;;;;;;;;;;;;;5113145;28;20010;-61
2021/07/03 07:07:35;;;;;;;;;;;;;;;;;;5110513;28;19954;-61
2021/07/03 07:10:01;;;;;;;;;;;;;;;;;;5096213;28;19919;-62
2021/07/03 07:12:26;;;;;;;;;;;;;;;;;;5121764;28;19924;-62
2021/07/03 07:14:52;;;;;;;;;;;;;;;;;;5115859;28;19940;-62
2021/07/03 07:17:18;;;;;;;;;;;;;;;;;;5114473;27;20328;-62
2021/07/03 07:19:44;;;;;;;;;;;;;;;;;;5103634;27;19916;-62
2021/07/03 07:22:10;;;;;;;;;;;;;;;;;;5114706;27;20386;-61
2021/07/03 07:24:36;;;;;;;;;;;;;;;;;;5092991;27;20402;-61
2021/07/03 07:27:02;;;;;;;;;;;;;;;;;;5108470;27;19915;-61
2021/07/03 07:29:28;;;;;;;;;;;;;;;;;;5111170;27;19915;-61
2021/07/03 07:31:54;;;;;;;;;;;;;;;;;;5114717;27;20378;-61
2021/07/03 07:34:19;;;;;;;;;;;;;;;;;;5116318;27;20010;-61
2021/07/03 07:36:45;;;;;;;;;;;;;;;;;;5113237;27;20301;-60
2021/07/03 07:39:11;;;;;;;;;;;;;;;;;;5100412;27;19912;-60
2021/07/03 07:41:37;;;;;;;;;;;;;;;;;;5099354;28;19908;-60
2021/07/03 07:44:03;;;;;;;;;;;;;;;;;;5114194;27;20289;-60
2021/07/03 07:46:29;;;;;;;;;;;;;;;;;;5116009;27;19911;-60
2021/07/03 07:48:57;;;;;;;;;;;;;;;;;;5115004;27;20361;-60
2021/07/03 07:51:23;;;;;;;;;;;;;;;;;;5091547;28;20010;-62
2021/07/03 07:53:49;;;;;;;;;;;;;;;;;;5124322;27;20495;-64
2021/07/03 07:56:19;;;;;;;;;;;;;;;;;;5114847;27;19912;-58
2021/07/03 07:58:44;;;;;;;;;;;;;;;;;;5115127;27;19912;-60
2021/07/03 08:01:13;;;;;;;;;;;;;;;;;;5115331;27;19990;-60
2021/07/03 08:03:39;;;;;;;;;;;;;;;;;;5114238;27;19976;-60
2021/07/03 08:06:04;;;;;;;;;;;;;;;;;;5096820;28;19915;-60
2021/07/03 08:08:30;;;;;;;;;;;;;;;;;;5114286;27;19915;-60
2021/07/03 08:10:56;;;;;;;;;;;;;;;;;;5112893;27;19920;-60
2021/07/03 08:13:22;;;;;;;;;;;;;;;;;;5113654;27;19931;-60
2021/07/03 08:15:50;;;;;;;;;;;;;;;;;;5112647;27;19915;-60
2021/07/03 08:18:16;;;;;;;;;;;;;;;;;;5112041;27;20363;-61
2021/07/03 08:20:41;;;;;;;;;;;;;;;;;;5117122;27;19915;-62
2021/07/03 08:23:08;;;;;;;;;;;;;;;;;;5114720;27;19998;-61
2021/07/03 08:25:33;;;;;;;;;;;;;;;;;;5113107;27;19923;-61
2021/07/03 08:27:59;;;;;;;;;;;;;;;;;;5114370;27;19911;-61
2021/07/03 08:30:25;;;;;;;;;;;;;;;;;;5111021;28;20290;-61
2021/07/03 08:32:51;;;;;;;;;;;;;;;;;;5118574;27;19911;-61
2021/07/03 08:35:17;;;;;;;;;;;;;;;;;;5116855;27;20002;-61
2021/07/03 08:37:43;;;;;;;;;;;;;;;;;;5113260;27;19947;-62
2021/07/03 08:40:09;;;;;;;;;;;;;;;;;;5114704;27;20556;-63
2021/07/03 08:42:35;;;;;;;;;;;;;;;;;;5111251;27;19912;-60
2021/07/03 08:45:01;;;;;;;;;;;;;;;;;;5118874;27;19919;-63
2021/07/03 08:47:27;;;;;;;;;;;;;;;;;;5126049;27;19911;-64
2021/07/03 08:49:53;;;;;;;;;;;;;;;;;;5119199;27;19991;-63
2021/07/03 08:52:18;;;;;;;;;;;;;;;;;;5115270;27;19918;-64
2021/07/03 08:54:44;;;;;;;;;;;;;;;;;;5119201;27;19912;-63
2021/07/03 08:57:10;;;;;;;;;;;;;;;;;;5113596;27;19915;-61
2021/07/03 08:59:36;;;;;;;;;;;;;;;;;;5116083;27;19907;-62
2021/07/03 09:02:02;;;;;;;;;;;;;;;;;;5114244;27;19973;-62
2021/07/03 09:04:28;;;;;;;;;;;;;;;;;;5116641;27;20002;-61
2021/07/03 09:06:54;;;;;;;;;;;;;;;;;;5112708;27;19911;-62
2021/07/03 09:09:20;;;;;;;;;;;;;;;;;;5109346;28;19924;-62
2021/07/03 09:11:45;;;;;;;;;;;;;;;;;;5116032;27;19914;-61
2021/07/03 09:14:11;;;;;;;;;;;;;;;;;;5114480;27;20255;-62
2021/07/03 09:16:37;;;;;;;;;;;;;;;;;;5114356;27;19911;-62
2021/07/03 09:19:03;;;;;;;;;;;;;;;;;;5113687;27;20313;-62
2021/07/03 09:21:29;;;;;;;;;;;;;;;;;;5110518;27;19957;-62
2021/07/03 09:23:55;;;;;;;;;;;;;;;;;;5116147;27;19987;-62
2021/07/03 09:26:21;;;;;;;;;;;;;;;;;;5115694;27;20297;-62
2021/07/03 09:28:47;;;;;;;;;;;;;;;;;;5113910;27;19912;-62
2021/07/03 09:31:13;;;;;;;;;;;;;;;;;;5114218;27;20597;-62
2021/07/03 09:33:38;;;;;;;;;;;;;;;;;;5112609;27;19912;-62
2021/07/03 09:36:04;;;;;;;;;;;;;;;;;;5114417;27;19959;-60
2021/07/03 09:38:30;;;;;;;;;;;;;;;;;;5112960;27;19908;-60
2021/07/03 09:40:56;;;;;;;;;;;;;;;;;;5113995;27;19919;-60
2021/07/03 09:43:22;;;;;;;;;;;;;;;;;;5112521;27;19916;-59
2021/07/03 09:45:49;;;;;;;;;;;;;;;;;;5111160;27;19927;-60
2021/07/03 09:48:14;;;;;;;;;;;;;;;;;;5110464;28;19920;-60
2021/07/03 09:50:41;;;;;;;;;;;;;;;;;;5115032;27;19984;-60
2021/07/03 09:53:06;;;;;;;;;;;;;;;;;;5119302;27;19912;-60
2021/07/03 09:55:32;;;;;;;;;;;;;;;;;;5113853;27;19998;-60
2021/07/03 09:57:58;;;;;;;;;;;;;;;;;;5110523;27;19928;-60
2021/07/03 10:00:24;;;;;;;;;;;;;;;;;;5105280;28;20298;-59
2021/07/03 10:02:50;;;;;;;;;;;;;;;;;;5115501;28;19912;-59
2021/07/03 10:05:16;;;;;;;;;;;;;;;;;;5114330;27;20030;-59
2021/07/03 10:07:42;;;;;;;;;;;;;;;;;;5110681;28;20340;-60
2021/07/03 10:10:08;;;;;;;;;;;;;;;;;;5113040;28;19927;-60
2021/07/03 10:12:35;;;;;;;;;;;;;;;;;;5109814;28;19997;-60
2021/07/03 10:15:01;;;;;;;;;;;;;;;;;;5120664;28;20389;-60
2021/07/03 10:17:27;;;;;;;;;;;;;;;;;;5120096;28;20014;-60
2021/07/03 10:19:53;;;;;;;;;;;;;;;;;;5113500;28;19938;-61
2021/07/03 10:22:19;;;;;;;;;;;;;;;;;;5114263;28;19916;-60
2021/07/03 10:24:45;;;;;;;;;;;;;;;;;;5111868;28;20081;-61
2021/07/03 10:27:11;;;;;;;;;;;;;;;;;;5112364;28;20375;-60
2021/07/03 10:29:37;;;;;;;;;;;;;;;;;;5114335;28;19914;-61
2021/07/03 10:32:03;;;;;;;;;;;;;;;;;;5113576;28;19916;-61
2021/07/03 10:34:29;;;;;;;;;;;;;;;;;;5113716;28;20345;-61
2021/07/03 10:36:55;;;;;;;;;;;;;;;;;;5111940;28;19919;-60
2021/07/03 10:39:20;;;;;;;;;;;;;;;;;;5109220;28;19916;-60
2021/07/03 10:41:46;;;;;;;;;;;;;;;;;;5116250;28;19961;-61
2021/07/03 10:44:12;;;;;;;;;;;;;;;;;;5112855;28;20382;-61
2021/07/03 10:46:39;;;;;;;;;;;;;;;;;;5113052;28;19925;-69
2021/07/03 10:49:05;;;;;;;;;;;;;;;;;;5094784;28;19912;-66
2021/07/03 10:51:31;;;;;;;;;;;;;;;;;;5111814;27;19919;-66
2021/07/03 10:53:57;;;;;;;;;;;;;;;;;;5130866;27;19907;-68
2021/07/03 10:56:23;;;;;;;;;;;;;;;;;;5116399;27;19952;-68
2021/07/03 10:58:48;;;;;;;;;;;;;;;;;;5114291;27;20325;-68
2021/07/03 11:01:14;;;;;;;;;;;;;;;;;;5117255;27;19911;-68
2021/07/03 11:03:40;;;;;;;;;;;;;;;;;;5113512;27;20367;-67
2021/07/03 11:06:06;;;;;;;;;;;;;;;;;;5116428;27;19953;-67
2021/07/03 11:08:34;;;;;;;;;;;;;;;;;;5116306;27;19908;-68
2021/07/03 11:10:59;;;;;;;;;;;;;;;;;;5116381;27;19919;-66
2021/07/03 11:13:25;;;;;;;;;;;;;;;;;;5116540;27;20366;-67
2021/07/03 11:15:51;;;;;;;;;;;;;;;;;;5116057;27;19956;-68
2021/07/03 11:18:19;;;;;;;;;;;;;;;;;;5112393;27;21902;-68
2021/07/03 11:20:45;;;;;;;;;;;;;;;;;;5117765;27;19947;-69
2021/07/03 11:23:12;;;;;;;;;;;;;;;;;;5111920;28;19912;-68
2021/07/03 11:25:38;;;;;;;;;;;;;;;;;;5116683;27;19920;-68
2021/07/03 11:28:04;;;;;;;;;;;;;;;;;;5116071;27;19925;-67
2021/07/03 11:30:30;;;;;;;;;;;;;;;;;;5111961;27;19920;-67
2021/07/03 11:32:56;;;;;;;;;;;;;;;;;;5119131;27;19908;-67
2021/07/03 11:35:22;;;;;;;;;;;;;;;;;;5118291;27;19908;-67
2021/07/03 11:37:48;;;;;;;;;;;;;;;;;;5115147;27;20393;-68
2021/07/03 11:40:14;;;;;;;;;;;;;;;;;;5115871;27;20362;-68
2021/07/03 11:42:40;;;;;;;;;;;;;;;;;;5113366;27;19915;-68
2021/07/03 11:45:06;;;;;;;;;;;;;;;;;;5116576;27;19916;-66
2021/07/03 11:47:32;;;;;;;;;;;;;;;;;;5116332;27;19911;-67
2021/07/03 11:49:57;;;;;;;;;;;;;;;;;;5114998;27;19980;-69
2021/07/03 11:52:23;;;;;;;;;;;;;;;;;;5118427;27;20429;-68
2021/07/03 11:54:49;;;;;;;;;;;;;;;;;;5127392;27;19912;-68
2021/07/03 11:57:15;;;;;;;;;;;;;;;;;;5113413;27;19920;-67
2021/07/03 11:59:41;;;;;;;;;;;;;;;;;;5117549;27;19958;-70
2021/07/03 12:02:07;;;;;;;;;;;;;;;;;;5115519;27;19919;-69
2021/07/03 12:04:33;;;;;;;;;;;;;;;;;;5115827;27;19923;-67
2021/07/03 12:06:59;;;;;;;;;;;;;;;;;;5114454;27;19918;-68
2021/07/03 12:09:25;;;;;;;;;;;;;;;;;;5092416;28;20010;-68
2021/07/03 12:11:51;;;;;;;;;;;;;;;;;;5118408;27;20406;-68
2021/07/03 12:14:17;;;;;;;;;;;;;;;;;;5115343;27;19912;-69
2021/07/03 12:16:42;;;;;;;;;;;;;;;;;;5115227;27;20371;-72
2021/07/03 12:19:08;;;;;;;;;;;;;;;;;;5097176;27;19912;-72
2021/07/03 12:21:34;;;;;;;;;;;;;;;;;;5111812;27;20695;-69
2021/07/03 12:24:00;;;;;;;;;;;;;;;;;;5116297;27;20007;-71
2021/07/03 12:26:26;;;;;;;;;;;;;;;;;;5116185;27;19912;-70
2021/07/03 12:28:52;;;;;;;;;;;;;;;;;;5114847;27;20355;-69
2021/07/03 12:31:18;;;;;;;;;;;;;;;;;;5114586;27;20446;-69
2021/07/03 12:33:44;;;;;;;;;;;;;;;;;;5113012;27;19947;-69
2021/07/03 12:36:10;;;;;;;;;;;;;;;;;;5114461;27;20363;-69
2021/07/03 12:38:36;;;;;;;;;;;;;;;;;;5115050;27;19935;-71
2021/07/03 12:41:04;;;;;;;;;;;;;;;;;;5113956;27;19912;-71
2021/07/03 12:43:30;;;;;;;;;;;;;;;;;;5095796;28;20216;-71
2021/07/03 12:45:56;;;;;;;;;;;;;;;;;;5113939;27;19920;-71
2021/07/03 12:48:22;;;;;;;;;;;;;;;;;;5110288;27;20310;-71
2021/07/03 12:50:47;;;;;;;;;;;;;;;;;;5117596;27;19980;-70
2021/07/03 12:53:13;;;;;;;;;;;;;;;;;;5121559;27;20289;-71
2021/07/03 12:55:40;;;;;;;;;;;;;;;;;;5119624;27;19919;-71
2021/07/03 12:58:06;;;;;;;;;;;;;;;;;;5114988;27;19911;-71
2021/07/03 13:00:32;;;;;;;;;;;;;;;;;;5110783;27;20003;-71
2021/07/03 13:03:00;;;;;;;;;;;;;;;;;;5116670;27;20018;-71
2021/07/03 13:05:26;;;;;;;;;;;;;;;;;;5114761;27;20006;-71
2021/07/03 13:07:52;;;;;;;;;;;;;;;;;;5113425;27;19943;-71
2021/07/03 13:10:18;;;;;;;;;;;;;;;;;;5096838;28;19928;-71
2021/07/03 13:12:44;;;;;;;;;;;;;;;;;;5111979;27;19913;-71
2021/07/03 13:15:09;;;;;;;;;;;;;;;;;;5114154;27;20010;-71
2021/07/03 13:17:35;;;;;;;;;;;;;;;;;;5115428;27;19908;-71
2021/07/03 13:20:01;;;;;;;;;;;;;;;;;;5113211;27;20006;-70
2021/07/03 13:22:27;;;;;;;;;;;;;;;;;;5096057;28;19960;-71
2021/07/03 13:24:53;;;;;;;;;;;;;;;;;;5118262;27;19930;-71
2021/07/03 13:27:19;;;;;;;;;;;;;;;;;;5117241;27;19927;-70
2021/07/03 13:29:45;;;;;;;;;;;;;;;;;;5126476;27;19907;-69
2021/07/03 13:32:11;;;;;;;;;;;;;;;;;;5119692;27;20354;-71
2021/07/03 13:34:36;;;;;;;;;;;;;;;;;;5121581;27;19915;-70
2021/07/03 13:37:02;;;;;;;;;;;;;;;;;;5120032;27;19923;-70
2021/07/03 13:39:28;;;;;;;;;;;;;;;;;;5119118;27;20371;-70
2021/07/03 13:41:54;;;;;;;;;;;;;;;;;;5125103;27;19907;-70
2021/07/03 13:44:20;;;;;;;;;;;;;;;;;;5121732;27;19935;-70
2021/07/03 13:46:46;;;;;;;;;;;;;;;;;;5122158;27;19915;-70
2021/07/03 13:49:12;;;;;;;;;;;;;;;;;;5122429;27;19911;-70
2021/07/03 13:51:38;;;;;;;;;;;;;;;;;;5118015;27;19917;-70
2021/07/03 13:54:04;;;;;;;;;;;;;;;;;;5120251;27;19908;-70
2021/07/03 13:56:30;;;;;;;;;;;;;;;;;;5123486;27;19953;-70
2021/07/03 13:58:56;;;;;;;;;;;;;;;;;;5120897;27;19911;-70
2021/07/03 14:01:22;;;;;;;;;;;;;;;;;;5121072;27;20231;-70
2021/07/03 14:03:48;;;;;;;;;;;;;;;;;;5119371;27;19911;-70
2021/07/03 14:06:13;;;;;;;;;;;;;;;;;;5120976;27;20371;-70
2021/07/03 14:08:40;;;;;;;;;;;;;;;;;;5123096;28;20268;-70
2021/07/03 14:11:06;;;;;;;;;;;;;;;;;;5122511;28;20351;-71
2021/07/03 14:13:32;;;;;;;;;;;;;;;;;;5119358;28;19912;-71
2021/07/03 14:15:58;;;;;;;;;;;;;;;;;;5113306;28;19918;-70
2021/07/03 14:18:24;;;;;;;;;;;;;;;;;;5108913;28;20279;-70
2021/07/03 14:20:50;;;;;;;;;;;;;;;;;;5116791;28;19908;-70
2021/07/03 14:23:16;;;;;;;;;;;;;;;;;;5094453;28;20353;-71
2021/07/03 14:25:41;;;;;;;;;;;;;;;;;;5116866;27;19920;-70
2021/07/03 14:28:07;;;;;;;;;;;;;;;;;;5117354;27;19915;-70
2021/07/03 14:30:35;;;;;;;;;;;;;;;;;;5118563;27;19924;-69
2021/07/03 14:33:01;;;;;;;;;;;;;;;;;;5117510;27;19969;-69
2021/07/03 14:35:27;;;;;;;;;;;;;;;;;;5118450;27;20366;-71
2021/07/03 14:37:53;;;;;;;;;;;;;;;;;;5115308;27;19916;-70
2021/07/03 14:40:18;;;;;;;;;;;;;;;;;;5117123;27;20378;-70
2021/07/03 14:42:44;;;;;;;;;;;;;;;;;;5114383;27;19912;-69
2021/07/03 14:45:10;;;;;;;;;;;;;;;;;;5116404;27;19916;-71
2021/07/03 14:47:36;;;;;;;;;;;;;;;;;;5117962;27;19908;-70
2021/07/03 14:50:02;;;;;;;;;;;;;;;;;;5116502;27;19912;-70
2021/07/03 14:52:28;;;;;;;;;;;;;;;;;;5117641;27;20049;-70
2021/07/03 14:54:54;;;;;;;;;;;;;;;;;;5128539;27;19957;-70
2021/07/03 14:57:20;;;;;;;;;;;;;;;;;;5113258;27;19916;-70
2021/07/03 14:59:46;;;;;;;;;;;;;;;;;;5119062;27;19914;-70
2021/07/03 15:02:12;;;;;;;;;;;;;;;;;;5116187;27;20384;-70
2021/07/03 15:04:37;;;;;;;;;;;;;;;;;;5116014;27;19926;-70
2021/07/03 15:07:03;;;;;;;;;;;;;;;;;;5115319;27;20012;-70
2021/07/03 15:09:29;;;;;;;;;;;;;;;;;;5112337;27;19912;-70
2021/07/03 15:11:55;;;;;;;;;;;;;;;;;;5118915;27;19915;-70
2021/07/03 15:14:21;;;;;;;;;;;;;;;;;;5117449;27;19912;-71
2021/07/03 15:16:47;;;;;;;;;;;;;;;;;;5097721;28;19951;-71
2021/07/03 15:19:13;;;;;;;;;;;;;;;;;;5116082;27;19911;-71
2021/07/03 15:21:39;;;;;;;;;;;;;;;;;;5113975;27;19912;-71
2021/07/03 15:24:04;;;;;;;;;;;;;;;;;;5116089;27;20347;-71
2021/07/03 15:26:30;;;;;;;;;;;;;;;;;;5116600;27;19908;-73
2021/07/03 15:28:56;;;;;;;;;;;;;;;;;;5115890;27;20134;-72
2021/07/03 15:31:22;;;;;;;;;;;;;;;;;;5116559;27;19912;-71
2021/07/03 15:33:48;;;;;;;;;;;;;;;;;;5114336;27;19950;-71
2021/07/03 15:36:14;;;;;;;;;;;;;;;;;;5113376;27;19915;-71
2021/07/03 15:38:40;;;;;;;;;;;;;;;;;;5116632;27;19931;-71
2021/07/03 15:41:06;;;;;;;;;;;;;;;;;;5115763;27;20347;-71
2021/07/03 15:43:31;;;;;;;;;;;;;;;;;;5097518;28;19918;-72
2021/07/03 15:45:57;;;;;;;;;;;;;;;;;;5115587;27;19930;-73
2021/07/03 15:48:24;;;;;;;;;;;;;;;;;;5103366;28;19912;-72
2021/07/03 15:50:50;;;;;;;;;;;;;;;;;;5130098;27;19943;-71
2021/07/03 15:53:16;;;;;;;;;;;;;;;;;;5123018;27;20016;-72
2021/07/03 15:55:44;;;;;;;;;;;;;;;;;;5120571;27;19912;-75
2021/07/03 15:58:10;;;;;;;;;;;;;;;;;;5113191;27;19959;-71
2021/07/03 16:00:36;;;;;;;;;;;;;;;;;;5123848;27;19994;-71
2021/07/03 16:03:02;;;;;;;;;;;;;;;;;;5116498;27;19908;-74
2021/07/03 16:05:28;;;;;;;;;;;;;;;;;;5117625;27;19923;-72
2021/07/03 16:07:54;;;;;;;;;;;;;;;;;;5114888;27;19958;-70
2021/07/03 16:10:20;;;;;;;;;;;;;;;;;;5115155;27;19927;-71
2021/07/03 16:12:45;;;;;;;;;;;;;;;;;;5114062;27;19927;-72
2021/07/03 16:15:11;;;;;;;;;;;;;;;;;;5114401;27;19908;-74
2021/07/03 16:17:37;;;;;;;;;;;;;;;;;;5116380;27;19915;-70
2021/07/03 16:20:03;;;;;;;;;;;;;;;;;;5115164;27;20002;-71
2021/07/03 16:22:29;;;;;;;;;;;;;;;;;;5115008;27;19998;-69
2021/07/03 16:24:57;;;;;;;;;;;;;;;;;;5114541;27;19920;-69
2021/07/03 16:27:23;;;;;;;;;;;;;;;;;;5111050;27;19954;-70
2021/07/03 16:29:49;;;;;;;;;;;;;;;;;;5119734;27;19952;-70
2021/07/03 16:32:14;;;;;;;;;;;;;;;;;;5111737;28;19918;-70
2021/07/03 16:34:40;;;;;;;;;;;;;;;;;;5111120;27;19919;-70
2021/07/03 16:37:06;;;;;;;;;;;;;;;;;;5115910;27;20413;-68